createdAt,value
2022-09-23T00:00:53.923Z,5.91
2022-09-23T00:01:54.037Z,5.92
2022-09-23T00:02:54.074Z,5.92
2022-09-23T00:03:54.032Z,5.87
2022-09-23T00:04:54.066Z,5.88
2022-09-23T00:05:54.103Z,5.88
2022-09-23T00:06:54.125Z,5.88
2022-09-23T00:07:54.152Z,5.89
2022-09-23T00:08:54.184Z,5.89
2022-09-23T00:09:54.221Z,5.88
2022-09-23T00:10:54.266Z,5.88
2022-09-23T00:11:54.307Z,5.88
2022-09-23T00:12:54.336Z,5.89
2022-09-23T00:13:54.378Z,5.89
2022-09-23T00:14:54.417Z,5.89
2022-09-23T00:15:54.455Z,5.83
2022-09-23T00:16:54.609Z,5.83
2022-09-23T00:17:54.520Z,5.82
2022-09-23T00:18:54.555Z,5.8
2022-09-23T00:19:54.586Z,5.78
2022-09-23T00:20:54.614Z,5.7
2022-09-23T00:21:54.653Z,5.71
2022-09-23T00:22:54.690Z,5.71
2022-09-23T00:23:54.729Z,5.72
2022-09-23T00:24:54.759Z,5.65
2022-09-23T00:25:54.797Z,5.72
2022-09-23T00:26:54.838Z,5.71
2022-09-23T00:27:54.866Z,5.71
2022-09-23T00:28:54.906Z,5.65
2022-09-23T00:29:54.935Z,5.66
2022-09-23T00:30:55.065Z,5.66
2022-09-23T00:31:55.013Z,5.66
2022-09-23T00:32:55.046Z,5.66
2022-09-23T00:33:55.079Z,5.67
2022-09-23T00:34:55.120Z,5.68
2022-09-23T00:35:55.146Z,5.7
2022-09-23T00:36:55.186Z,5.7
2022-09-23T00:37:55.227Z,5.63
2022-09-23T00:38:55.247Z,5.63
2022-09-23T00:39:55.291Z,5.63
2022-09-23T00:40:55.323Z,5.63
2022-09-23T00:41:55.357Z,5.64
2022-09-23T00:42:55.383Z,5.64
2022-09-23T00:43:55.423Z,5.64
2022-09-23T00:44:55.450Z,5.65
2022-09-23T00:45:55.565Z,5.64
2022-09-23T00:46:55.524Z,5.63
2022-09-23T00:47:55.554Z,5.64
2022-09-23T00:48:55.596Z,5.64
2022-09-23T00:49:55.634Z,5.65
2022-09-23T00:50:55.670Z,5.64
2022-09-23T00:51:55.705Z,5.63
2022-09-23T00:52:55.735Z,5.57
2022-09-23T00:53:55.773Z,5.57
2022-09-23T00:54:55.810Z,5.56
2022-09-23T00:55:55.852Z,5.55
2022-09-23T00:56:55.885Z,5.54
2022-09-23T00:57:55.931Z,5.54
2022-09-23T00:58:55.966Z,5.47
2022-09-23T00:59:56.001Z,5.48
2022-09-23T01:00:56.102Z,5.49
2022-09-23T01:01:56.134Z,5.5
2022-09-23T01:02:56.116Z,5.5
2022-09-23T01:03:56.156Z,5.51
2022-09-23T01:04:56.178Z,5.51
2022-09-23T01:05:56.219Z,5.51
2022-09-23T01:06:56.260Z,5.51
2022-09-23T01:07:56.297Z,5.51
2022-09-23T01:08:56.342Z,5.52
2022-09-23T01:09:56.383Z,5.53
2022-09-23T01:10:56.422Z,5.47
2022-09-23T01:11:56.459Z,5.47
2022-09-23T01:12:56.507Z,5.47
2022-09-23T01:13:56.547Z,5.48
2022-09-23T01:14:56.584Z,5.48
2022-09-23T01:15:56.621Z,5.48
2022-09-23T01:16:56.744Z,5.48
2022-09-23T01:17:56.687Z,5.48
2022-09-23T01:18:56.730Z,5.47
2022-09-23T01:19:56.762Z,5.47
2022-09-23T01:20:56.803Z,5.46
2022-09-23T01:21:56.838Z,5.46
2022-09-23T01:22:56.870Z,5.39
2022-09-23T01:23:56.905Z,5.38
2022-09-23T01:24:56.935Z,5.39
2022-09-23T01:25:56.967Z,5.4
2022-09-23T01:26:57.012Z,5.4
2022-09-23T01:27:57.051Z,5.41
2022-09-23T01:28:57.089Z,5.4
2022-09-23T01:29:57.121Z,5.4
2022-09-23T01:30:57.209Z,5.33
2022-09-23T01:31:57.196Z,5.34
2022-09-23T01:32:57.242Z,5.33
2022-09-23T01:33:57.284Z,5.32
2022-09-23T01:34:57.319Z,5.32
2022-09-23T01:35:57.350Z,5.31
2022-09-23T01:36:57.388Z,5.32
2022-09-23T01:37:57.420Z,5.31
2022-09-23T01:38:57.451Z,5.31
2022-09-23T01:39:57.489Z,5.33
2022-09-23T01:40:57.518Z,5.33
2022-09-23T01:41:57.553Z,5.32
2022-09-23T01:42:57.586Z,5.33
2022-09-23T01:43:57.621Z,5.34
2022-09-23T01:44:57.638Z,5.35
2022-09-23T01:45:57.671Z,5.34
2022-09-23T01:46:57.713Z,5.34
2022-09-23T01:47:57.771Z,5.28
2022-09-23T01:48:57.783Z,5.28
2022-09-23T01:49:57.821Z,5.35
2022-09-23T01:50:57.861Z,5.36
2022-09-23T01:51:57.896Z,5.35
2022-09-23T01:52:57.928Z,5.36
2022-09-23T01:53:57.960Z,5.35
2022-09-23T01:54:57.995Z,5.3
2022-09-23T01:55:58.030Z,5.37
2022-09-23T01:56:58.051Z,5.37
2022-09-23T01:57:58.090Z,5.3
2022-09-23T01:58:58.127Z,5.3
2022-09-23T01:59:58.167Z,5.29
2022-09-23T02:00:58.292Z,5.29
2022-09-23T02:01:58.314Z,5.29
2022-09-23T02:02:58.277Z,5.28
2022-09-23T02:03:58.316Z,5.26
2022-09-23T02:04:58.360Z,5.19
2022-09-23T02:05:58.395Z,5.18
2022-09-23T02:06:58.423Z,5.18
2022-09-23T02:07:58.463Z,5.18
2022-09-23T02:08:58.498Z,5.19
2022-09-23T02:09:58.528Z,5.18
2022-09-23T02:10:58.567Z,5.18
2022-09-23T02:11:58.941Z,5.18
2022-09-23T02:12:58.631Z,5.13
2022-09-23T02:13:58.668Z,5.12
2022-09-23T02:14:58.703Z,5.13
2022-09-23T02:15:58.741Z,5.13
2022-09-23T02:16:58.839Z,5.13
2022-09-23T02:17:58.822Z,5.13
2022-09-23T02:18:58.959Z,5.12
2022-09-23T02:19:58.879Z,5.12
2022-09-23T02:20:58.915Z,5.11
2022-09-23T02:21:58.955Z,5.11
2022-09-23T02:22:58.983Z,5.11
2022-09-23T02:23:59.020Z,5.12
2022-09-23T02:24:59.057Z,5.11
2022-09-23T02:25:59.095Z,5.04
2022-09-23T02:26:59.122Z,5.04
2022-09-23T02:27:59.155Z,5.06
2022-09-23T02:28:59.320Z,5.06
2022-09-23T02:29:59.226Z,5.06
2022-09-23T02:30:59.260Z,5.06
2022-09-23T02:31:59.370Z,5.05
2022-09-23T02:32:59.338Z,5.05
2022-09-23T02:33:59.376Z,5
2022-09-23T02:34:59.414Z,5
2022-09-23T02:35:59.451Z,4.99
2022-09-23T02:36:59.486Z,4.99
2022-09-23T02:37:59.532Z,5
2022-09-23T02:38:59.572Z,5.01
2022-09-23T02:39:59.615Z,5.01
2022-09-23T02:40:59.655Z,5.01
2022-09-23T02:41:59.697Z,5.08
2022-09-23T02:42:59.733Z,5.09
2022-09-23T02:43:59.914Z,5.09
2022-09-23T02:44:59.819Z,5.09
2022-09-23T02:45:59.919Z,5.09
2022-09-23T02:46:59.891Z,5.02
2022-09-23T02:47:59.929Z,5.03
2022-09-23T02:48:59.964Z,5.02
2022-09-23T02:50:00.008Z,5.01
2022-09-23T02:51:00.065Z,4.94
2022-09-23T02:52:00.080Z,4.94
2022-09-23T02:53:00.111Z,4.94
2022-09-23T02:54:00.144Z,4.94
2022-09-23T02:55:00.182Z,4.88
2022-09-23T02:56:00.219Z,4.89
2022-09-23T02:57:00.261Z,4.89
2022-09-23T02:58:00.292Z,4.89
2022-09-23T02:59:00.332Z,4.88
2022-09-23T03:00:00.370Z,4.88
2022-09-23T03:01:00.474Z,4.87
2022-09-23T03:02:00.526Z,4.81
2022-09-23T03:03:00.484Z,4.81
2022-09-23T03:04:00.532Z,4.81
2022-09-23T03:05:00.552Z,4.82
2022-09-23T03:06:00.585Z,4.82
2022-09-23T03:07:00.609Z,4.82
2022-09-23T03:08:00.646Z,4.89
2022-09-23T03:09:00.684Z,4.89
2022-09-23T03:10:00.717Z,4.82
2022-09-23T03:11:00.764Z,4.82
2022-09-23T03:12:00.793Z,4.82
2022-09-23T03:13:00.828Z,4.81
2022-09-23T03:14:00.860Z,4.81
2022-09-23T03:15:00.901Z,4.81
2022-09-23T03:16:00.961Z,4.81
2022-09-23T03:17:00.975Z,4.81
2022-09-23T03:18:01.012Z,4.81
2022-09-23T03:19:01.042Z,4.74
2022-09-23T03:20:01.077Z,4.73
2022-09-23T03:21:01.114Z,4.73
2022-09-23T03:22:01.154Z,4.73
2022-09-23T03:23:01.185Z,4.74
2022-09-23T03:24:01.223Z,4.75
2022-09-23T03:25:01.262Z,4.75
2022-09-23T03:26:01.300Z,4.75
2022-09-23T03:27:01.332Z,4.74
2022-09-23T03:28:01.371Z,4.75
2022-09-23T03:29:01.404Z,4.69
2022-09-23T03:30:01.460Z,4.76
2022-09-23T03:31:01.472Z,4.69
2022-09-23T03:32:01.547Z,4.69
2022-09-23T03:33:01.558Z,4.69
2022-09-23T03:34:01.577Z,4.69
2022-09-23T03:35:01.613Z,4.69
2022-09-23T03:36:01.644Z,4.7
2022-09-23T03:37:01.676Z,4.7
2022-09-23T03:38:01.716Z,4.69
2022-09-23T03:39:01.810Z,4.69
2022-09-23T03:40:01.788Z,4.69
2022-09-23T03:41:01.821Z,4.69
2022-09-23T03:42:01.859Z,4.69
2022-09-23T03:43:01.876Z,4.69
2022-09-23T03:44:01.913Z,4.69
2022-09-23T03:45:01.951Z,4.69
2022-09-23T03:46:02.130Z,4.69
2022-09-23T03:47:02.020Z,4.69
2022-09-23T03:48:02.051Z,4.68
2022-09-23T03:49:02.083Z,4.67
2022-09-23T03:50:02.120Z,4.67
2022-09-23T03:51:02.155Z,4.66
2022-09-23T03:52:02.187Z,4.66
2022-09-23T03:53:02.230Z,4.65
2022-09-23T03:54:02.319Z,4.59
2022-09-23T03:55:02.302Z,4.59
2022-09-23T03:56:02.341Z,4.6
2022-09-23T03:57:02.374Z,4.6
2022-09-23T03:58:02.410Z,4.59
2022-09-23T03:59:02.444Z,4.58
2022-09-23T04:00:02.484Z,4.52
2022-09-23T04:01:02.600Z,4.52
2022-09-23T04:02:02.694Z,4.52
2022-09-23T04:03:02.589Z,4.53
2022-09-23T04:04:02.685Z,4.54
2022-09-23T04:05:02.657Z,4.53
2022-09-23T04:06:02.692Z,4.53
2022-09-23T04:07:02.730Z,4.47
2022-09-23T04:08:02.769Z,4.47
2022-09-23T04:09:02.800Z,4.47
2022-09-23T04:10:02.833Z,4.47
2022-09-23T04:11:02.863Z,4.47
2022-09-23T04:12:02.895Z,4.4
2022-09-23T04:13:02.934Z,4.41
2022-09-23T04:14:02.970Z,4.41
2022-09-23T04:15:03.021Z,4.41
2022-09-23T04:16:03.131Z,4.41
2022-09-23T04:17:03.087Z,4.41
2022-09-23T04:18:03.122Z,4.41
2022-09-23T04:19:04.947Z,4.41
2022-09-23T04:20:03.179Z,4.34
2022-09-23T04:21:03.219Z,4.34
2022-09-23T04:22:03.253Z,4.34
2022-09-23T04:23:03.290Z,4.34
2022-09-23T04:24:03.322Z,4.33
2022-09-23T04:25:03.352Z,4.33
2022-09-23T04:26:03.382Z,4.27
2022-09-23T04:27:03.430Z,4.28
2022-09-23T04:28:03.460Z,4.28
2022-09-23T04:29:03.503Z,4.29
2022-09-23T04:30:03.524Z,4.29
2022-09-23T04:31:03.663Z,4.3
2022-09-23T04:32:03.593Z,4.3
2022-09-23T04:33:03.639Z,4.3
2022-09-23T04:34:03.681Z,4.3
2022-09-23T04:35:03.721Z,4.23
2022-09-23T04:36:03.761Z,4.23
2022-09-23T04:37:03.799Z,4.23
2022-09-23T04:38:03.829Z,4.23
2022-09-23T04:39:03.868Z,4.23
2022-09-23T04:40:04.021Z,4.23
2022-09-23T04:41:03.936Z,4.24
2022-09-23T04:42:03.974Z,4.25
2022-09-23T04:43:04.003Z,4.26
2022-09-23T04:44:04.051Z,4.26
2022-09-23T04:45:04.077Z,4.25
2022-09-23T04:46:04.112Z,4.26
2022-09-23T04:47:04.229Z,4.26
2022-09-23T04:48:04.172Z,4.31
2022-09-23T04:49:04.211Z,4.32
2022-09-23T04:50:04.247Z,4.31
2022-09-23T04:51:04.279Z,4.31
2022-09-23T04:52:04.322Z,4.31
2022-09-23T04:53:04.362Z,4.31
2022-09-23T04:54:04.399Z,4.3
2022-09-23T04:55:06.937Z,4.3
2022-09-23T04:56:04.474Z,4.3
2022-09-23T04:57:04.520Z,4.37
2022-09-23T04:58:04.551Z,4.31
2022-09-23T04:59:04.585Z,4.38
2022-09-23T05:00:04.633Z,4.39
2022-09-23T05:01:05.473Z,4.4
2022-09-23T05:02:04.743Z,4.4
2022-09-23T05:03:04.736Z,4.4
2022-09-23T05:04:04.768Z,4.4
2022-09-23T05:05:04.813Z,4.4
2022-09-23T05:06:04.842Z,4.4
2022-09-23T05:07:04.878Z,4.4
2022-09-23T05:08:04.907Z,4.41
2022-09-23T05:09:04.965Z,4.41
2022-09-23T05:10:04.973Z,4.41
2022-09-23T05:11:05.014Z,4.41
2022-09-23T05:12:05.043Z,4.41
2022-09-23T05:13:05.079Z,4.42
2022-09-23T05:14:05.116Z,4.42
2022-09-23T05:15:05.160Z,4.43
2022-09-23T05:16:05.218Z,4.5
2022-09-23T05:17:05.226Z,4.51
2022-09-23T05:18:05.269Z,4.51
2022-09-23T05:19:05.303Z,4.51
2022-09-23T05:20:05.341Z,4.51
2022-09-23T05:21:05.369Z,4.51
2022-09-23T05:22:05.403Z,4.51
2022-09-23T05:23:05.441Z,4.58
2022-09-23T05:24:05.484Z,4.57
2022-09-23T05:25:05.511Z,4.57
2022-09-23T05:26:05.547Z,4.58
2022-09-23T05:27:05.584Z,4.64
2022-09-23T05:28:05.624Z,4.64
2022-09-23T05:29:05.727Z,4.64
2022-09-23T05:30:05.706Z,4.65
2022-09-23T05:31:05.870Z,4.65
2022-09-23T05:32:05.842Z,4.71
2022-09-23T05:33:05.815Z,4.71
2022-09-23T05:34:05.853Z,4.72
2022-09-23T05:35:05.891Z,4.72
2022-09-23T05:36:05.915Z,4.72
2022-09-23T05:37:05.946Z,4.78
2022-09-23T05:38:05.988Z,4.78
2022-09-23T05:39:06.120Z,4.78
2022-09-23T05:40:06.117Z,4.78
2022-09-23T05:41:06.094Z,4.85
2022-09-23T05:42:06.130Z,4.85
2022-09-23T05:43:06.162Z,4.85
2022-09-23T05:44:06.204Z,4.92
2022-09-23T05:45:06.241Z,4.91
2022-09-23T05:46:08.338Z,4.91
2022-09-23T05:47:06.376Z,4.91
2022-09-23T05:48:06.351Z,4.91
2022-09-23T05:49:06.385Z,4.97
2022-09-23T05:50:06.421Z,4.98
2022-09-23T05:51:06.458Z,5.05
2022-09-23T05:52:06.491Z,5.05
2022-09-23T05:53:06.524Z,5.05
2022-09-23T05:54:06.701Z,5.05
2022-09-23T05:55:06.598Z,5.05
2022-09-23T05:56:06.642Z,5.12
2022-09-23T05:57:06.673Z,5.13
2022-09-23T05:58:06.719Z,5.2
2022-09-23T05:59:06.944Z,5.2
2022-09-23T06:00:06.763Z,5.27
2022-09-23T06:01:06.796Z,5.27
2022-09-23T06:02:06.874Z,5.33
2022-09-23T06:03:06.998Z,5.33
2022-09-23T06:04:07.003Z,5.4
2022-09-23T06:05:06.932Z,5.4
2022-09-23T06:06:06.967Z,5.47
2022-09-23T06:07:06.996Z,5.54
2022-09-23T06:08:07.032Z,5.55
2022-09-23T06:09:07.282Z,5.62
2022-09-23T06:10:07.088Z,5.62
2022-09-23T06:11:07.152Z,5.69
2022-09-23T06:12:07.165Z,5.75
2022-09-23T06:13:07.206Z,5.81
2022-09-23T06:14:07.387Z,5.8
2022-09-23T06:15:07.269Z,5.87
2022-09-23T06:16:07.351Z,5.88
2022-09-23T06:17:07.348Z,5.95
2022-09-23T06:18:07.395Z,6.03
2022-09-23T06:19:07.419Z,6.03
2022-09-23T06:20:07.435Z,6.03
2022-09-23T06:21:07.466Z,6.1
2022-09-23T06:22:07.500Z,6.17
2022-09-23T06:23:09.486Z,6.22
2022-09-23T06:24:07.831Z,6.28
2022-09-23T06:25:07.597Z,6.34
2022-09-23T06:26:07.632Z,6.39
2022-09-23T06:27:07.658Z,6.38
2022-09-23T06:28:07.698Z,6.45
2022-09-23T06:29:07.729Z,6.45
2022-09-23T06:30:07.762Z,6.52
2022-09-23T06:31:12.918Z,6.52
2022-09-23T06:32:07.832Z,6.59
2022-09-23T06:33:07.864Z,6.67
2022-09-23T06:34:11.961Z,6.67
2022-09-23T06:35:19.211Z,6.73
2022-09-23T06:36:07.975Z,6.74
2022-09-23T06:37:18.088Z,6.81
2022-09-23T06:38:08.038Z,6.8
2022-09-23T06:39:08.080Z,6.88
2022-09-23T06:40:08.146Z,6.89
2022-09-23T06:41:08.143Z,6.95
2022-09-23T06:42:08.176Z,7.03
2022-09-23T06:43:08.200Z,7.03
2022-09-23T06:44:08.295Z,7.11
2022-09-23T06:45:08.286Z,7.13
2022-09-23T06:46:08.406Z,7.2
2022-09-23T06:47:08.364Z,7.19
2022-09-23T06:48:08.395Z,7.25
2022-09-23T06:49:08.433Z,7.31
2022-09-23T06:50:08.466Z,7.32
2022-09-23T06:51:08.505Z,7.41
2022-09-23T06:52:08.542Z,7.41
2022-09-23T06:53:08.576Z,7.47
2022-09-23T06:54:08.690Z,7.53
2022-09-23T06:55:08.645Z,7.52
2022-09-23T06:56:08.681Z,7.58
2022-09-23T06:57:08.710Z,7.58
2022-09-23T06:58:08.745Z,7.64
2022-09-23T06:59:08.790Z,7.69
2022-09-23T07:00:08.817Z,7.7
2022-09-23T07:01:08.851Z,7.77
2022-09-23T07:02:08.999Z,7.75
2022-09-23T07:03:08.925Z,7.81
2022-09-23T07:04:08.962Z,7.88
2022-09-23T07:05:09.002Z,7.89
2022-09-23T07:06:09.026Z,7.95
2022-09-23T07:07:09.066Z,7.95
2022-09-23T07:08:09.100Z,8.03
2022-09-23T07:09:09.163Z,8.03
2022-09-23T07:10:09.163Z,8.1
2022-09-23T07:11:09.192Z,8.1
2022-09-23T07:12:09.230Z,8.18
2022-09-23T07:13:12.953Z,8.18
2022-09-23T07:14:09.307Z,8.25
2022-09-23T07:15:09.347Z,8.31
2022-09-23T07:16:09.701Z,8.39
2022-09-23T07:17:09.439Z,8.45
2022-09-23T07:18:09.447Z,8.44
2022-09-23T07:19:09.483Z,8.51
2022-09-23T07:20:09.519Z,8.56
2022-09-23T07:21:09.561Z,8.56
2022-09-23T07:22:09.590Z,8.63
2022-09-23T07:23:09.620Z,8.6
2022-09-23T07:24:09.745Z,8.66
2022-09-23T07:25:09.687Z,8.71
2022-09-23T07:26:09.720Z,8.69
2022-09-23T07:27:09.750Z,8.76
2022-09-23T07:28:09.792Z,8.84
2022-09-23T07:29:09.826Z,8.84
2022-09-23T07:30:16.868Z,8.89
2022-09-23T07:31:09.946Z,8.94
2022-09-23T07:32:13.679Z,8.96
2022-09-23T07:33:22.381Z,9
2022-09-23T07:34:10.072Z,9.05
2022-09-23T07:35:10.042Z,9.12
2022-09-23T07:36:10.113Z,9.18
2022-09-23T07:37:10.113Z,9.23
2022-09-23T07:38:10.149Z,9.29
2022-09-23T07:39:10.194Z,9.34
2022-09-23T07:40:10.307Z,9.32
2022-09-23T07:41:10.251Z,9.36
2022-09-23T07:42:10.289Z,9.42
2022-09-23T07:43:10.330Z,9.39
2022-09-23T07:44:10.361Z,9.43
2022-09-23T07:45:10.402Z,9.44
2022-09-23T07:46:10.504Z,9.53
2022-09-23T07:47:10.472Z,9.51
2022-09-23T07:48:10.508Z,9.55
2022-09-23T07:49:10.667Z,9.53
2022-09-23T07:50:10.568Z,9.58
2022-09-23T07:51:10.614Z,9.56
2022-09-23T07:52:10.655Z,9.62
2022-09-23T07:53:10.698Z,9.62
2022-09-23T07:54:10.740Z,9.69
2022-09-23T07:55:10.769Z,9.69
2022-09-23T07:56:10.802Z,9.69
2022-09-23T07:57:10.839Z,9.73
2022-09-23T07:58:10.870Z,9.74
2022-09-23T07:59:11.003Z,9.82
2022-09-23T08:00:10.941Z,9.83
2022-09-23T08:01:11.043Z,9.84
2022-09-23T08:02:11.015Z,9.78
2022-09-23T08:03:11.129Z,9.77
2022-09-23T08:04:11.105Z,9.75
2022-09-23T08:05:11.117Z,9.82
2022-09-23T08:06:11.153Z,9.84
2022-09-23T08:07:11.189Z,9.91
2022-09-23T08:08:11.216Z,9.91
2022-09-23T08:09:11.250Z,10
2022-09-23T08:10:11.280Z,10.02
2022-09-23T08:11:11.321Z,10.09
2022-09-23T08:12:15.787Z,10.1
2022-09-23T08:13:11.381Z,10.16
2022-09-23T08:14:11.410Z,10.15
2022-09-23T08:15:11.456Z,10.18
2022-09-23T08:16:11.530Z,10.13
2022-09-23T08:17:11.524Z,10.18
2022-09-23T08:18:11.559Z,10.17
2022-09-23T08:19:11.591Z,10.25
2022-09-23T08:20:11.632Z,10.25
2022-09-23T08:21:11.667Z,10.31
2022-09-23T08:22:11.704Z,10.31
2022-09-23T08:23:11.740Z,10.3
2022-09-23T08:24:11.774Z,10.33
2022-09-23T08:25:11.811Z,10.29
2022-09-23T08:26:19.436Z,10.33
2022-09-23T08:27:11.889Z,10.3
2022-09-23T08:28:11.924Z,10.34
2022-09-23T08:29:11.958Z,10.33
2022-09-23T08:30:11.991Z,10.34
2022-09-23T08:31:12.069Z,10.31
2022-09-23T08:32:12.055Z,10.28
2022-09-23T08:33:12.097Z,10.31
2022-09-23T08:34:12.131Z,10.3
2022-09-23T08:35:12.168Z,10.26
2022-09-23T08:36:12.202Z,10.27
2022-09-23T08:37:12.238Z,10.38
2022-09-23T08:38:12.283Z,10.34
2022-09-23T08:39:12.304Z,10.5
2022-09-23T08:40:12.434Z,10.51
2022-09-23T08:41:12.360Z,10.45
2022-09-23T08:42:12.404Z,10.52
2022-09-23T08:43:12.433Z,10.49
2022-09-23T08:44:12.464Z,10.49
2022-09-23T08:45:12.502Z,10.51
2022-09-23T08:46:12.588Z,10.6
2022-09-23T08:47:12.575Z,10.61
2022-09-23T08:48:13.236Z,10.6
2022-09-23T08:49:12.644Z,10.58
2022-09-23T08:50:12.681Z,10.59
2022-09-23T08:51:12.717Z,10.55
2022-09-23T08:52:12.744Z,10.56
2022-09-23T08:53:12.801Z,10.6
2022-09-23T08:54:12.810Z,10.6
2022-09-23T08:55:12.848Z,10.6
2022-09-23T08:56:12.887Z,10.69
2022-09-23T08:57:12.928Z,10.72
2022-09-23T08:58:25.045Z,10.77
2022-09-23T08:59:12.995Z,10.82
2022-09-23T09:00:13.031Z,10.79
2022-09-23T09:01:13.137Z,10.7
2022-09-23T09:02:13.132Z,10.66
2022-09-23T09:03:13.126Z,10.72
2022-09-23T09:04:13.160Z,10.74
2022-09-23T09:05:13.198Z,10.71
2022-09-23T09:06:13.236Z,10.79
2022-09-23T09:07:35.284Z,10.8
2022-09-23T09:08:13.298Z,10.75
2022-09-23T09:09:13.336Z,10.82
2022-09-23T09:10:13.367Z,10.85
2022-09-23T09:11:13.422Z,10.91
2022-09-23T09:12:13.439Z,10.82
2022-09-23T09:13:13.476Z,10.83
2022-09-23T09:14:13.511Z,10.89
2022-09-23T09:15:13.543Z,10.96
2022-09-23T09:16:13.683Z,11.01
2022-09-23T09:17:13.609Z,11.02
2022-09-23T09:18:13.646Z,10.91
2022-09-23T09:19:13.685Z,10.95
2022-09-23T09:20:13.719Z,10.95
2022-09-23T09:21:13.751Z,11
2022-09-23T09:22:13.790Z,10.99
2022-09-23T09:23:13.824Z,10.91
2022-09-23T09:24:13.858Z,10.92
2022-09-23T09:25:14.456Z,10.93
2022-09-23T09:26:13.930Z,10.89
2022-09-23T09:27:13.968Z,10.9
2022-09-23T09:28:14.002Z,10.87
2022-09-23T09:29:31.164Z,10.93
2022-09-23T09:30:14.078Z,11.05
2022-09-23T09:31:14.115Z,11.1
2022-09-23T09:32:14.140Z,11.04
2022-09-23T09:33:14.172Z,11.03
2022-09-23T09:34:14.198Z,10.95
2022-09-23T09:35:14.287Z,10.97
2022-09-23T09:36:14.269Z,11.17
2022-09-23T09:37:14.308Z,11.06
2022-09-23T09:38:14.333Z,11.1
2022-09-23T09:39:14.370Z,11.11
2022-09-23T09:40:14.464Z,11.13
2022-09-23T09:41:14.442Z,11.18
2022-09-23T09:42:14.481Z,11.29
2022-09-23T09:43:14.508Z,11.21
2022-09-23T09:44:14.549Z,11.17
2022-09-23T09:45:14.587Z,11.15
2022-09-23T09:46:14.688Z,11.15
2022-09-23T09:47:14.652Z,11.21
2022-09-23T09:48:14.687Z,11.19
2022-09-23T09:49:14.724Z,11.21
2022-09-23T09:50:14.755Z,11.27
2022-09-23T09:51:14.785Z,11.23
2022-09-23T09:52:14.809Z,11.15
2022-09-23T09:53:14.796Z,11.09
2022-09-23T09:54:14.824Z,10.99
2022-09-23T09:55:14.856Z,11.07
2022-09-23T09:56:14.891Z,11.21
2022-09-23T09:57:14.929Z,11.18
2022-09-23T09:58:14.968Z,11.3
2022-09-23T09:59:15.001Z,11.16
2022-09-23T10:00:15.035Z,11.23
2022-09-23T10:01:15.125Z,11.35
2022-09-23T10:02:15.107Z,11.31
2022-09-23T10:03:15.155Z,11.38
2022-09-23T10:04:15.231Z,11.25
2022-09-23T10:05:15.223Z,11.4
2022-09-23T10:06:15.254Z,11.24
2022-09-23T10:07:15.283Z,11.29
2022-09-23T10:08:15.315Z,11.06
2022-09-23T10:09:15.345Z,11.09
2022-09-23T10:10:28.955Z,11.17
2022-09-23T10:11:15.405Z,10.94
2022-09-23T10:12:15.455Z,10.92
2022-09-23T10:13:15.485Z,10.87
2022-09-23T10:14:15.515Z,10.91
2022-09-23T10:15:15.547Z,10.96
2022-09-23T10:16:15.706Z,11.1
2022-09-23T10:17:15.615Z,11.23
2022-09-23T10:18:15.648Z,11.04
2022-09-23T10:19:15.697Z,11.04
2022-09-23T10:20:15.819Z,11.08
2022-09-23T10:21:15.746Z,11.17
2022-09-23T10:22:15.789Z,11.14
2022-09-23T10:23:15.817Z,11.3
2022-09-23T10:24:15.850Z,11.14
2022-09-23T10:25:15.882Z,11.16
2022-09-23T10:26:15.923Z,11.16
2022-09-23T10:27:15.966Z,11.12
2022-09-23T10:28:15.996Z,11.09
2022-09-23T10:29:16.033Z,11.17
2022-09-23T10:30:16.159Z,11.02
2022-09-23T10:31:16.147Z,11.09
2022-09-23T10:32:16.135Z,11.22
2022-09-23T10:33:16.163Z,11.11
2022-09-23T10:34:16.202Z,11.18
2022-09-23T10:35:16.240Z,11.16
2022-09-23T10:36:16.264Z,11.03
2022-09-23T10:37:16.299Z,11.17
2022-09-23T10:38:16.341Z,11.08
2022-09-23T10:39:16.380Z,11.16
2022-09-23T10:40:16.566Z,11.32
2022-09-23T10:41:16.454Z,11.29
2022-09-23T10:42:16.489Z,11.26
2022-09-23T10:43:16.509Z,11.08
2022-09-23T10:44:16.541Z,11.21
2022-09-23T10:45:16.570Z,11.28
2022-09-23T10:46:16.691Z,11.39
2022-09-23T10:47:16.640Z,11.26
2022-09-23T10:48:16.673Z,11.34
2022-09-23T10:49:16.705Z,11.28
2022-09-23T10:50:16.749Z,11.31
2022-09-23T10:51:16.781Z,11.41
2022-09-23T10:52:16.819Z,11.42
2022-09-23T10:53:16.849Z,11.52
2022-09-23T10:54:16.882Z,11.47
2022-09-23T10:55:16.920Z,11.55
2022-09-23T10:56:16.958Z,11.57
2022-09-23T10:57:16.990Z,11.77
2022-09-23T10:58:17.025Z,11.68
2022-09-23T10:59:17.060Z,11.72
2022-09-23T11:00:17.097Z,11.62
2022-09-23T11:01:17.219Z,11.69
2022-09-23T11:02:17.168Z,11.69
2022-09-23T11:03:17.201Z,11.53
2022-09-23T11:04:17.303Z,11.51
2022-09-23T11:05:17.271Z,11.33
2022-09-23T11:06:17.288Z,11.36
2022-09-23T11:07:17.314Z,11.5
2022-09-23T11:08:17.352Z,11.41
2022-09-23T11:09:17.385Z,11.42
2022-09-23T11:10:29.274Z,11.42
2022-09-23T11:11:17.448Z,11.38
2022-09-23T11:12:17.486Z,11.46
2022-09-23T11:13:17.525Z,11.52
2022-09-23T11:14:17.559Z,11.45
2022-09-23T11:15:17.594Z,11.26
2022-09-23T11:16:17.731Z,11.22
2022-09-23T11:17:17.654Z,11.24
2022-09-23T11:18:17.692Z,11.37
2022-09-23T11:19:17.727Z,11.35
2022-09-23T11:20:17.755Z,11.59
2022-09-23T11:21:17.791Z,11.26
2022-09-23T11:22:17.826Z,11.31
2022-09-23T11:23:17.866Z,11.45
2022-09-23T11:24:17.893Z,11.19
2022-09-23T11:25:17.921Z,11.08
2022-09-23T11:26:17.956Z,11.27
2022-09-23T11:27:17.991Z,11.21
2022-09-23T11:28:18.027Z,11.12
2022-09-23T11:29:18.067Z,11.02
2022-09-23T11:30:18.088Z,11.11
2022-09-23T11:31:18.165Z,11.17
2022-09-23T11:32:18.151Z,11.19
2022-09-23T11:33:18.177Z,11.16
2022-09-23T11:34:18.208Z,11.29
2022-09-23T11:35:18.251Z,11.3
2022-09-23T11:36:18.287Z,11.5
2022-09-23T11:37:18.327Z,11.31
2022-09-23T11:38:18.366Z,11.15
2022-09-23T11:39:18.397Z,11.17
2022-09-23T11:40:18.462Z,11.36
2022-09-23T11:41:18.462Z,11.49
2022-09-23T11:42:18.499Z,11.6
2022-09-23T11:43:18.538Z,11.43
2022-09-23T11:44:18.561Z,11.35
2022-09-23T11:45:18.594Z,11.39
2022-09-23T11:46:18.703Z,11.26
2022-09-23T11:47:18.673Z,11.1
2022-09-23T11:48:18.704Z,11.19
2022-09-23T11:49:18.739Z,11.1
2022-09-23T11:50:18.769Z,11.15
2022-09-23T11:51:18.807Z,11.24
2022-09-23T11:52:18.838Z,11.38
2022-09-23T11:53:18.870Z,11.45
2022-09-23T11:54:20.773Z,11.48
2022-09-23T11:55:22.382Z,11.52
2022-09-23T11:56:30.307Z,11.5
2022-09-23T11:57:18.997Z,11.41
2022-09-23T11:58:25.399Z,11.44
2022-09-23T11:59:22.357Z,11.28
2022-09-23T12:00:19.095Z,11.26
2022-09-23T12:01:23.037Z,11.24
2022-09-23T12:02:21.236Z,11.34
2022-09-23T12:03:19.297Z,11.32
2022-09-23T12:04:21.188Z,11.31
2022-09-23T12:05:19.373Z,11.31
2022-09-23T12:06:19.303Z,11.21
2022-09-23T12:07:19.336Z,11.29
2022-09-23T12:08:19.362Z,11.4
2022-09-23T12:09:31.016Z,11.34
2022-09-23T12:10:19.423Z,11.23
2022-09-23T12:11:19.466Z,11.18
2022-09-23T12:12:21.977Z,11.06
2022-09-23T12:13:19.536Z,11.14
2022-09-23T12:14:19.561Z,11.26
2022-09-23T12:15:19.603Z,11.21
2022-09-23T12:16:19.686Z,11.32
2022-09-23T12:17:19.675Z,11.34
2022-09-23T12:18:22.953Z,11.2
2022-09-23T12:19:19.738Z,11.13
2022-09-23T12:20:19.769Z,11.04
2022-09-23T12:21:45.736Z,10.98
2022-09-23T12:22:19.844Z,10.96
2022-09-23T12:23:19.885Z,10.93
2022-09-23T12:24:19.917Z,11.05
2022-09-23T12:25:19.957Z,11.16
2022-09-23T12:26:19.973Z,11.4
2022-09-23T12:27:20.018Z,11.33
2022-09-23T12:28:20.042Z,11.4
2022-09-23T12:29:20.138Z,11.27
2022-09-23T12:30:20.228Z,11.17
2022-09-23T12:31:20.142Z,11.36
2022-09-23T12:32:20.183Z,11.47
2022-09-23T12:33:20.213Z,11.51
2022-09-23T12:34:20.251Z,11.22
2022-09-23T12:35:20.287Z,11.24
2022-09-23T12:36:20.325Z,11.23
2022-09-23T12:37:20.362Z,11
2022-09-23T12:38:20.389Z,11.01
2022-09-23T12:39:20.423Z,11.05
2022-09-23T12:40:20.484Z,11.15
2022-09-23T12:41:20.479Z,11.03
2022-09-23T12:42:20.499Z,11.14
2022-09-23T12:43:20.530Z,11.3
2022-09-23T12:44:20.563Z,11.37
2022-09-23T12:45:20.628Z,11.37
2022-09-23T12:46:20.675Z,11.33
2022-09-23T12:47:20.675Z,11.4
2022-09-23T12:48:20.711Z,11.44
2022-09-23T12:49:20.749Z,11.4
2022-09-23T12:50:23.832Z,11.35
2022-09-23T12:51:20.825Z,11.43
2022-09-23T12:52:20.867Z,11.32
2022-09-23T12:53:20.895Z,11.28
2022-09-23T12:54:20.932Z,11.3
2022-09-23T12:55:20.964Z,11.31
2022-09-23T12:56:21.003Z,11.24
2022-09-23T12:57:21.030Z,11.22
2022-09-23T12:58:21.065Z,11.28
2022-09-23T12:59:21.100Z,11.32
2022-09-23T13:00:21.137Z,11.35
2022-09-23T13:01:21.291Z,11.4
2022-09-23T13:02:21.284Z,11.41
2022-09-23T13:03:21.232Z,11.43
2022-09-23T13:04:21.263Z,11.39
2022-09-23T13:05:21.295Z,11.32
2022-09-23T13:06:21.329Z,11.5
2022-09-23T13:07:21.366Z,11.52
2022-09-23T13:08:21.407Z,11.6
2022-09-23T13:09:21.433Z,11.6
2022-09-23T13:10:21.474Z,11.52
2022-09-23T13:11:21.506Z,11.55
2022-09-23T13:12:21.542Z,11.45